sensor_id;sensor_type;location;lat;lon;timestamp;P1;durP1;ratioP1;P2;durP2;ratioP2
19575;SDS011;41589;51.196;7.074;2023-03-15T00:03:35;1.57;;;1.47;;
19575;SDS011;41589;51.196;7.074;2023-03-15T00:08:36;1.87;;;1.77;;
19575;SDS011;41589;51.196;7.074;2023-03-15T00:13:36;1.70;;;1.60;;
19575;SDS011;41589;51.196;7.074;2023-03-15T00:18:37;1.77;;;1.50;;
19575;SDS011;41589;51.196;7.074;2023-03-15T00:23:38;2.10;;;1.90;;
19575;SDS011;41589;51.196;7.074;2023-03-15T00:28:38;4.10;;;1.63;;
19575;SDS011;41589;51.196;7.074;2023-03-15T00:33:38;1.50;;;1.40;;
19575;SDS011;41589;51.196;7.074;2023-03-15T00:38:41;1.40;;;1.37;;
19575;SDS011;41589;51.196;7.074;2023-03-15T00:43:43;1.60;;;1.50;;
19575;SDS011;41589;51.196;7.074;2023-03-15T00:48:46;1.97;;;1.87;;
19575;SDS011;41589;51.196;7.074;2023-03-15T00:53:47;1.60;;;1.50;;
19575;SDS011;41589;51.196;7.074;2023-03-15T00:58:49;1.43;;;1.33;;
19575;SDS011;41589;51.196;7.074;2023-03-15T01:03:52;1.83;;;1.73;;
19575;SDS011;41589;51.196;7.074;2023-03-15T01:08:53;1.30;;;1.30;;
19575;SDS011;41589;51.196;7.074;2023-03-15T01:13:56;1.40;;;1.40;;
19575;SDS011;41589;51.196;7.074;2023-03-15T01:18:59;1.40;;;1.30;;
19575;SDS011;41589;51.196;7.074;2023-03-15T01:23:59;1.53;;;1.43;;
19575;SDS011;41589;51.196;7.074;2023-03-15T01:28:59;1.50;;;1.40;;
19575;SDS011;41589;51.196;7.074;2023-03-15T01:34:00;1.37;;;1.37;;
19575;SDS011;41589;51.196;7.074;2023-03-15T01:39:04;1.53;;;1.43;;
19575;SDS011;41589;51.196;7.074;2023-03-15T01:44:17;1.90;;;1.80;;
19575;SDS011;41589;51.196;7.074;2023-03-15T01:49:22;1.70;;;1.60;;
19575;SDS011;41589;51.196;7.074;2023-03-15T01:54:28;1.87;;;1.77;;
19575;SDS011;41589;51.196;7.074;2023-03-15T01:59:38;2.03;;;1.83;;
19575;SDS011;41589;51.196;7.074;2023-03-15T02:04:44;2.13;;;1.90;;
19575;SDS011;41589;51.196;7.074;2023-03-15T02:10:14;2.10;;;2.00;;
19575;SDS011;41589;51.196;7.074;2023-03-15T02:15:16;2.13;;;2.03;;
19575;SDS011;41589;51.196;7.074;2023-03-15T02:20:22;2.10;;;1.90;;
19575;SDS011;41589;51.196;7.074;2023-03-15T02:26:06;2.10;;;2.00;;
19575;SDS011;41589;51.196;7.074;2023-03-15T02:31:01;2.23;;;2.00;;
19575;SDS011;41589;51.196;7.074;2023-03-15T02:36:14;1.97;;;1.83;;
19575;SDS011;41589;51.196;7.074;2023-03-15T02:46:36;1.90;;;1.80;;
19575;SDS011;41589;51.196;7.074;2023-03-15T02:51:37;2.07;;;1.60;;
19575;SDS011;41589;51.196;7.074;2023-03-15T02:56:38;1.30;;;1.30;;
19575;SDS011;41589;51.196;7.074;2023-03-15T03:01:42;1.00;;;1.00;;
19575;SDS011;41589;51.196;7.074;2023-03-15T03:06:45;1.60;;;1.50;;
19575;SDS011;41589;51.196;7.074;2023-03-15T03:11:51;1.70;;;1.60;;
19575;SDS011;41589;51.196;7.074;2023-03-15T03:16:52;1.10;;;1.10;;
19575;SDS011;41589;51.196;7.074;2023-03-15T03:21:53;1.20;;;1.20;;
19575;SDS011;41589;51.196;7.074;2023-03-15T03:26:54;1.30;;;1.30;;
19575;SDS011;41589;51.196;7.074;2023-03-15T03:31:58;1.30;;;1.30;;
19575;SDS011;41589;51.196;7.074;2023-03-15T03:36:59;3.33;;;1.37;;
19575;SDS011;41589;51.196;7.074;2023-03-15T03:42:19;1.27;;;1.20;;
19575;SDS011;41589;51.196;7.074;2023-03-15T03:47:19;1.17;;;1.17;;
19575;SDS011;41589;51.196;7.074;2023-03-15T03:52:20;1.40;;;1.40;;
19575;SDS011;41589;51.196;7.074;2023-03-15T03:57:23;1.23;;;1.23;;
19575;SDS011;41589;51.196;7.074;2023-03-15T04:02:23;1.30;;;1.30;;
19575;SDS011;41589;51.196;7.074;2023-03-15T04:07:32;1.37;;;1.37;;
19575;SDS011;41589;51.196;7.074;2023-03-15T04:12:32;1.33;;;1.33;;
19575;SDS011;41589;51.196;7.074;2023-03-15T04:17:33;1.30;;;1.30;;
19575;SDS011;41589;51.196;7.074;2023-03-15T04:22:33;1.20;;;1.20;;
19575;SDS011;41589;51.196;7.074;2023-03-15T04:27:59;1.27;;;1.27;;
19575;SDS011;41589;51.196;7.074;2023-03-15T04:33:20;1.10;;;1.10;;
19575;SDS011;41589;51.196;7.074;2023-03-15T04:38:34;1.10;;;1.10;;
19575;SDS011;41589;51.196;7.074;2023-03-15T04:43:52;1.23;;;1.23;;
19575;SDS011;41589;51.196;7.074;2023-03-15T04:49:03;1.30;;;1.30;;
19575;SDS011;41589;51.196;7.074;2023-03-15T04:54:25;1.50;;;1.50;;
19575;SDS011;41589;51.196;7.074;2023-03-15T04:59:47;5.97;;;2.60;;
19575;SDS011;41589;51.196;7.074;2023-03-15T05:05:10;2.80;;;1.90;;
19575;SDS011;41589;51.196;7.074;2023-03-15T05:10:23;6.67;;;2.50;;
19575;SDS011;41589;51.196;7.074;2023-03-15T05:15:43;1.80;;;1.70;;
19575;SDS011;41589;51.196;7.074;2023-03-15T05:21:22;2.80;;;2.10;;
19575;SDS011;41589;51.196;7.074;2023-03-15T05:26:45;12.23;;;4.17;;
19575;SDS011;41589;51.196;7.074;2023-03-15T05:31:56;18.60;;;5.30;;
19575;SDS011;41589;51.196;7.074;2023-03-15T05:37:05;5.93;;;2.80;;
19575;SDS011;41589;51.196;7.074;2023-03-15T05:42:29;28.70;;;6.63;;
19575;SDS011;41589;51.196;7.074;2023-03-15T05:47:37;22.83;;;6.43;;
19575;SDS011;41589;51.196;7.074;2023-03-15T05:53:05;14.33;;;4.63;;
19575;SDS011;41589;51.196;7.074;2023-03-15T05:58:34;15.53;;;5.87;;
19575;SDS011;41589;51.196;7.074;2023-03-15T06:03:58;5.20;;;3.43;;
19575;SDS011;41589;51.196;7.074;2023-03-15T06:09:10;2.20;;;2.10;;
19575;SDS011;41589;51.196;7.074;2023-03-15T06:14:19;2.40;;;2.30;;
19575;SDS011;41589;51.196;7.074;2023-03-15T06:19:23;2.53;;;2.40;;
19575;SDS011;41589;51.196;7.074;2023-03-15T06:24:29;2.53;;;2.43;;
19575;SDS011;41589;51.196;7.074;2023-03-15T06:29:48;2.40;;;2.30;;
19575;SDS011;41589;51.196;7.074;2023-03-15T06:34:50;6.70;;;3.00;;
19575;SDS011;41589;51.196;7.074;2023-03-15T06:39:51;2.40;;;2.30;;
19575;SDS011;41589;51.196;7.074;2023-03-15T06:44:54;2.23;;;2.13;;
19575;SDS011;41589;51.196;7.074;2023-03-15T06:49:55;2.17;;;2.07;;
19575;SDS011;41589;51.196;7.074;2023-03-15T06:54:56;2.40;;;2.30;;
19575;SDS011;41589;51.196;7.074;2023-03-15T06:59:56;2.53;;;2.43;;
19575;SDS011;41589;51.196;7.074;2023-03-15T07:04:57;2.73;;;2.63;;
19575;SDS011;41589;51.196;7.074;2023-03-15T07:10:03;2.40;;;2.30;;
19575;SDS011;41589;51.196;7.074;2023-03-15T07:15:03;3.30;;;3.10;;
19575;SDS011;41589;51.196;7.074;2023-03-15T07:20:06;2.73;;;2.53;;
19575;SDS011;41589;51.196;7.074;2023-03-15T07:25:07;3.10;;;2.90;;
19575;SDS011;41589;51.196;7.074;2023-03-15T07:30:11;3.47;;;3.27;;
19575;SDS011;41589;51.196;7.074;2023-03-15T07:35:14;3.20;;;3.00;;
19575;SDS011;41589;51.196;7.074;2023-03-15T07:40:17;3.50;;;3.30;;
19575;SDS011;41589;51.196;7.074;2023-03-15T07:45:17;3.40;;;3.20;;
19575;SDS011;41589;51.196;7.074;2023-03-15T07:50:17;3.90;;;3.70;;
19575;SDS011;41589;51.196;7.074;2023-03-15T07:55:19;3.93;;;3.73;;
19575;SDS011;41589;51.196;7.074;2023-03-15T08:00:19;3.50;;;3.30;;
19575;SDS011;41589;51.196;7.074;2023-03-15T08:05:21;3.27;;;3.13;;
19575;SDS011;41589;51.196;7.074;2023-03-15T08:10:23;3.40;;;3.17;;
19575;SDS011;41589;51.196;7.074;2023-03-15T08:15:23;3.13;;;2.93;;
19575;SDS011;41589;51.196;7.074;2023-03-15T08:20:23;3.20;;;3.00;;
19575;SDS011;41589;51.196;7.074;2023-03-15T08:25:29;3.73;;;3.53;;
19575;SDS011;41589;51.196;7.074;2023-03-15T08:30:31;3.20;;;3.00;;
19575;SDS011;41589;51.196;7.074;2023-03-15T08:35:32;2.63;;;2.53;;
19575;SDS011;41589;51.196;7.074;2023-03-15T08:40:33;4.17;;;2.67;;
19575;SDS011;41589;51.196;7.074;2023-03-15T08:45:34;3.10;;;2.87;;
19575;SDS011;41589;51.196;7.074;2023-03-15T08:50:34;2.53;;;2.33;;
19575;SDS011;41589;51.196;7.074;2023-03-15T08:55:36;2.43;;;2.33;;
19575;SDS011;41589;51.196;7.074;2023-03-15T09:00:36;2.20;;;2.10;;
19575;SDS011;41589;51.196;7.074;2023-03-15T09:05:37;2.37;;;2.27;;
19575;SDS011;41589;51.196;7.074;2023-03-15T09:10:37;2.37;;;2.23;;
19575;SDS011;41589;51.196;7.074;2023-03-15T09:15:37;2.40;;;2.30;;
19575;SDS011;41589;51.196;7.074;2023-03-15T09:20:38;2.50;;;2.40;;
19575;SDS011;41589;51.196;7.074;2023-03-15T09:25:38;2.40;;;2.30;;
19575;SDS011;41589;51.196;7.074;2023-03-15T09:30:40;2.20;;;2.10;;
19575;SDS011;41589;51.196;7.074;2023-03-15T09:35:41;1.90;;;1.80;;
19575;SDS011;41589;51.196;7.074;2023-03-15T09:40:42;2.17;;;2.07;;
19575;SDS011;41589;51.196;7.074;2023-03-15T09:51:38;3.00;;;2.33;;
19575;SDS011;41589;51.196;7.074;2023-03-15T09:56:59;2.27;;;2.10;;
19575;SDS011;41589;51.196;7.074;2023-03-15T10:02:03;1.70;;;1.60;;
19575;SDS011;41589;51.196;7.074;2023-03-15T10:07:24;1.70;;;1.60;;
19575;SDS011;41589;51.196;7.074;2023-03-15T10:12:33;1.50;;;1.40;;
19575;SDS011;41589;51.196;7.074;2023-03-15T10:17:50;1.70;;;1.60;;
19575;SDS011;41589;51.196;7.074;2023-03-15T10:23:18;1.67;;;1.57;;
19575;SDS011;41589;51.196;7.074;2023-03-15T10:28:23;1.50;;;1.43;;
19575;SDS011;41589;51.196;7.074;2023-03-15T10:33:30;1.30;;;1.30;;
19575;SDS011;41589;51.196;7.074;2023-03-15T10:38:35;1.40;;;1.30;;
19575;SDS011;41589;51.196;7.074;2023-03-15T10:43:36;1.70;;;1.60;;
19575;SDS011;41589;51.196;7.074;2023-03-15T10:48:39;1.30;;;1.30;;
19575;SDS011;41589;51.196;7.074;2023-03-15T10:58:55;1.43;;;1.30;;
19575;SDS011;41589;51.196;7.074;2023-03-15T11:04:01;1.60;;;1.50;;
19575;SDS011;41589;51.196;7.074;2023-03-15T11:09:07;1.50;;;1.40;;
19575;SDS011;41589;51.196;7.074;2023-03-15T11:14:11;4.87;;;4.57;;
19575;SDS011;41589;51.196;7.074;2023-03-15T11:19:12;1.50;;;1.40;;
19575;SDS011;41589;51.196;7.074;2023-03-15T11:24:19;1.43;;;1.30;;
19575;SDS011;41589;51.196;7.074;2023-03-15T11:29:30;1.70;;;1.60;;
19575;SDS011;41589;51.196;7.074;2023-03-15T11:39:49;1.50;;;1.40;;
19575;SDS011;41589;51.196;7.074;2023-03-15T11:44:55;1.63;;;1.30;;
19575;SDS011;41589;51.196;7.074;2023-03-15T11:50:00;1.50;;;1.40;;
19575;SDS011;41589;51.196;7.074;2023-03-15T11:55:01;1.50;;;1.33;;
19575;SDS011;41589;51.196;7.074;2023-03-15T12:10:41;1.43;;;1.33;;
19575;SDS011;41589;51.196;7.074;2023-03-15T12:15:46;1.70;;;1.60;;
19575;SDS011;41589;51.196;7.074;2023-03-15T12:20:55;1.30;;;1.10;;
19575;SDS011;41589;51.196;7.074;2023-03-15T12:26:08;1.37;;;1.27;;
19575;SDS011;41589;51.196;7.074;2023-03-15T12:31:15;1.33;;;1.23;;
19575;SDS011;41589;51.196;7.074;2023-03-15T12:36:28;1.27;;;1.13;;
19575;SDS011;41589;51.196;7.074;2023-03-15T12:41:36;1.60;;;1.40;;
19575;SDS011;41589;51.196;7.074;2023-03-15T12:57:26;1.03;;;1.03;;
19575;SDS011;41589;51.196;7.074;2023-03-15T13:02:32;1.30;;;1.20;;
19575;SDS011;41589;51.196;7.074;2023-03-15T13:07:42;1.00;;;1.00;;
19575;SDS011;41589;51.196;7.074;2023-03-15T13:18:33;1.20;;;1.20;;
19575;SDS011;41589;51.196;7.074;2023-03-15T13:23:47;1.10;;;1.10;;
19575;SDS011;41589;51.196;7.074;2023-03-15T13:29:01;1.30;;;1.20;;
19575;SDS011;41589;51.196;7.074;2023-03-15T13:34:18;1.20;;;1.10;;
19575;SDS011;41589;51.196;7.074;2023-03-15T13:39:25;1.00;;;1.00;;
19575;SDS011;41589;51.196;7.074;2023-03-15T13:44:27;0.90;;;0.90;;
19575;SDS011;41589;51.196;7.074;2023-03-15T13:49:30;1.10;;;1.10;;
19575;SDS011;41589;51.196;7.074;2023-03-15T13:54:32;1.10;;;1.10;;
19575;SDS011;41589;51.196;7.074;2023-03-15T14:05:26;1.30;;;1.13;;
19575;SDS011;41589;51.196;7.074;2023-03-15T14:10:33;1.00;;;0.90;;
19575;SDS011;41589;51.196;7.074;2023-03-15T14:15:36;1.17;;;1.17;;
19575;SDS011;41589;51.196;7.074;2023-03-15T14:20:44;0.90;;;0.90;;
19575;SDS011;41589;51.196;7.074;2023-03-15T14:26:29;0.77;;;0.77;;
19575;SDS011;41589;51.196;7.074;2023-03-15T14:31:22;1.00;;;0.90;;
19575;SDS011;41589;51.196;7.074;2023-03-15T14:36:32;0.80;;;0.80;;
19575;SDS011;41589;51.196;7.074;2023-03-15T14:41:38;0.80;;;0.80;;
19575;SDS011;41589;51.196;7.074;2023-03-15T14:46:40;0.90;;;0.90;;
19575;SDS011;41589;51.196;7.074;2023-03-15T14:51:40;0.97;;;0.97;;
19575;SDS011;41589;51.196;7.074;2023-03-15T14:56:41;0.80;;;0.80;;
19575;SDS011;41589;51.196;7.074;2023-03-15T15:01:43;0.93;;;0.93;;
19575;SDS011;41589;51.196;7.074;2023-03-15T15:06:48;1.10;;;1.00;;
19575;SDS011;41589;51.196;7.074;2023-03-15T15:11:50;1.67;;;1.20;;
19575;SDS011;41589;51.196;7.074;2023-03-15T15:16:51;1.00;;;1.00;;
19575;SDS011;41589;51.196;7.074;2023-03-15T15:21:51;1.20;;;1.20;;
19575;SDS011;41589;51.196;7.074;2023-03-15T15:26:51;1.10;;;1.10;;
19575;SDS011;41589;51.196;7.074;2023-03-15T15:31:52;1.30;;;1.20;;
19575;SDS011;41589;51.196;7.074;2023-03-15T15:36:52;0.87;;;0.80;;
19575;SDS011;41589;51.196;7.074;2023-03-15T15:41:53;1.00;;;1.00;;
19575;SDS011;41589;51.196;7.074;2023-03-15T15:46:53;2.07;;;1.97;;
19575;SDS011;41589;51.196;7.074;2023-03-15T15:51:53;1.10;;;1.10;;
19575;SDS011;41589;51.196;7.074;2023-03-15T15:56:58;5.07;;;4.67;;
19575;SDS011;41589;51.196;7.074;2023-03-15T16:02:00;2.20;;;1.90;;
19575;SDS011;41589;51.196;7.074;2023-03-15T16:07:00;1.80;;;1.70;;
19575;SDS011;41589;51.196;7.074;2023-03-15T16:12:08;2.30;;;2.20;;
19575;SDS011;41589;51.196;7.074;2023-03-15T16:17:17;1.53;;;1.50;;
19575;SDS011;41589;51.196;7.074;2023-03-15T16:22:22;1.20;;;1.20;;
19575;SDS011;41589;51.196;7.074;2023-03-15T16:27:23;3.20;;;3.00;;
19575;SDS011;41589;51.196;7.074;2023-03-15T16:32:26;1.27;;;1.27;;
19575;SDS011;41589;51.196;7.074;2023-03-15T16:37:28;1.00;;;0.90;;
19575;SDS011;41589;51.196;7.074;2023-03-15T16:42:32;2.07;;;1.93;;
19575;SDS011;41589;51.196;7.074;2023-03-15T16:47:32;1.17;;;1.17;;
19575;SDS011;41589;51.196;7.074;2023-03-15T16:52:33;1.00;;;1.00;;
19575;SDS011;41589;51.196;7.074;2023-03-15T16:57:33;1.20;;;1.20;;
19575;SDS011;41589;51.196;7.074;2023-03-15T17:02:34;1.50;;;1.40;;
19575;SDS011;41589;51.196;7.074;2023-03-15T17:07:35;0.90;;;0.90;;
19575;SDS011;41589;51.196;7.074;2023-03-15T17:12:38;0.93;;;0.93;;
19575;SDS011;41589;51.196;7.074;2023-03-15T17:17:38;1.40;;;1.30;;
19575;SDS011;41589;51.196;7.074;2023-03-15T17:22:42;1.00;;;1.00;;
19575;SDS011;41589;51.196;7.074;2023-03-15T17:27:43;1.37;;;1.27;;
19575;SDS011;41589;51.196;7.074;2023-03-15T17:32:45;0.90;;;0.90;;
19575;SDS011;41589;51.196;7.074;2023-03-15T17:37:46;1.00;;;1.00;;
19575;SDS011;41589;51.196;7.074;2023-03-15T17:42:47;1.30;;;1.20;;
19575;SDS011;41589;51.196;7.074;2023-03-15T17:47:48;1.00;;;1.00;;
19575;SDS011;41589;51.196;7.074;2023-03-15T17:52:52;1.07;;;1.07;;
19575;SDS011;41589;51.196;7.074;2023-03-15T17:57:54;1.00;;;1.00;;
19575;SDS011;41589;51.196;7.074;2023-03-15T18:02:54;1.33;;;1.23;;
19575;SDS011;41589;51.196;7.074;2023-03-15T18:07:55;1.30;;;1.20;;
19575;SDS011;41589;51.196;7.074;2023-03-15T18:12:56;1.30;;;1.20;;
19575;SDS011;41589;51.196;7.074;2023-03-15T18:17:57;1.20;;;1.20;;
19575;SDS011;41589;51.196;7.074;2023-03-15T18:22:57;1.30;;;1.20;;
19575;SDS011;41589;51.196;7.074;2023-03-15T18:27:58;1.10;;;1.10;;
19575;SDS011;41589;51.196;7.074;2023-03-15T18:32:59;1.43;;;1.33;;
19575;SDS011;41589;51.196;7.074;2023-03-15T18:38:00;1.33;;;1.33;;
19575;SDS011;41589;51.196;7.074;2023-03-15T18:43:02;1.70;;;1.60;;
19575;SDS011;41589;51.196;7.074;2023-03-15T18:48:04;1.50;;;1.40;;
19575;SDS011;41589;51.196;7.074;2023-03-15T18:53:05;1.70;;;1.60;;
19575;SDS011;41589;51.196;7.074;2023-03-15T18:58:05;1.10;;;1.10;;
19575;SDS011;41589;51.196;7.074;2023-03-15T19:03:11;1.40;;;1.30;;
19575;SDS011;41589;51.196;7.074;2023-03-15T19:08:12;1.60;;;1.50;;
19575;SDS011;41589;51.196;7.074;2023-03-15T19:13:12;1.30;;;1.30;;
19575;SDS011;41589;51.196;7.074;2023-03-15T19:18:15;1.20;;;1.10;;
19575;SDS011;41589;51.196;7.074;2023-03-15T19:23:19;1.30;;;1.20;;
19575;SDS011;41589;51.196;7.074;2023-03-15T19:28:20;1.37;;;1.30;;
19575;SDS011;41589;51.196;7.074;2023-03-15T19:33:21;1.37;;;1.37;;
19575;SDS011;41589;51.196;7.074;2023-03-15T19:38:24;1.40;;;1.30;;
19575;SDS011;41589;51.196;7.074;2023-03-15T19:43:32;1.50;;;1.40;;
19575;SDS011;41589;51.196;7.074;2023-03-15T19:48:40;1.50;;;1.40;;
19575;SDS011;41589;51.196;7.074;2023-03-15T19:53:40;5.97;;;5.43;;
19575;SDS011;41589;51.196;7.074;2023-03-15T19:58:41;6.50;;;5.90;;
19575;SDS011;41589;51.196;7.074;2023-03-15T20:03:41;4.33;;;4.03;;
19575;SDS011;41589;51.196;7.074;2023-03-15T20:08:42;2.20;;;2.10;;
19575;SDS011;41589;51.196;7.074;2023-03-15T20:13:42;1.50;;;1.40;;
19575;SDS011;41589;51.196;7.074;2023-03-15T20:18:43;1.50;;;1.40;;
19575;SDS011;41589;51.196;7.074;2023-03-15T20:23:44;1.30;;;1.30;;
19575;SDS011;41589;51.196;7.074;2023-03-15T20:28:46;1.40;;;1.40;;
19575;SDS011;41589;51.196;7.074;2023-03-15T20:33:47;1.63;;;1.57;;
19575;SDS011;41589;51.196;7.074;2023-03-15T20:38:49;1.60;;;1.50;;
19575;SDS011;41589;51.196;7.074;2023-03-15T20:43:50;1.60;;;1.50;;
19575;SDS011;41589;51.196;7.074;2023-03-15T20:48:51;1.53;;;1.43;;
19575;SDS011;41589;51.196;7.074;2023-03-15T20:53:51;1.60;;;1.50;;
19575;SDS011;41589;51.196;7.074;2023-03-15T20:58:52;1.13;;;1.13;;
19575;SDS011;41589;51.196;7.074;2023-03-15T21:03:52;1.50;;;1.40;;
19575;SDS011;41589;51.196;7.074;2023-03-15T21:08:56;1.50;;;1.40;;
19575;SDS011;41589;51.196;7.074;2023-03-15T21:13:56;1.23;;;1.23;;
19575;SDS011;41589;51.196;7.074;2023-03-15T21:18:57;1.60;;;1.50;;
19575;SDS011;41589;51.196;7.074;2023-03-15T21:23:57;1.03;;;1.03;;
19575;SDS011;41589;51.196;7.074;2023-03-15T21:28:59;1.43;;;1.33;;
19575;SDS011;41589;51.196;7.074;2023-03-15T21:33:59;1.20;;;1.20;;
19575;SDS011;41589;51.196;7.074;2023-03-15T21:39:00;1.20;;;1.20;;
19575;SDS011;41589;51.196;7.074;2023-03-15T21:44:00;1.30;;;1.30;;
19575;SDS011;41589;51.196;7.074;2023-03-15T21:49:00;1.10;;;1.10;;
19575;SDS011;41589;51.196;7.074;2023-03-15T21:54:01;1.10;;;1.10;;
19575;SDS011;41589;51.196;7.074;2023-03-15T21:59:04;1.43;;;1.40;;
19575;SDS011;41589;51.196;7.074;2023-03-15T22:04:04;1.60;;;1.50;;
19575;SDS011;41589;51.196;7.074;2023-03-15T22:09:05;1.63;;;1.53;;
19575;SDS011;41589;51.196;7.074;2023-03-15T22:14:05;2.67;;;2.47;;
19575;SDS011;41589;51.196;7.074;2023-03-15T22:19:06;3.13;;;2.93;;
19575;SDS011;41589;51.196;7.074;2023-03-15T22:24:07;2.43;;;2.23;;
19575;SDS011;41589;51.196;7.074;2023-03-15T22:29:08;3.23;;;3.03;;
19575;SDS011;41589;51.196;7.074;2023-03-15T22:34:08;3.67;;;3.37;;
19575;SDS011;41589;51.196;7.074;2023-03-15T22:39:09;3.13;;;2.93;;
19575;SDS011;41589;51.196;7.074;2023-03-15T22:44:10;6.87;;;6.27;;
19575;SDS011;41589;51.196;7.074;2023-03-15T22:49:10;15.70;;;14.17;;
19575;SDS011;41589;51.196;7.074;2023-03-15T22:54:11;6.53;;;5.97;;
19575;SDS011;41589;51.196;7.074;2023-03-15T22:59:11;6.23;;;5.73;;
19575;SDS011;41589;51.196;7.074;2023-03-15T23:04:12;7.43;;;6.83;;
19575;SDS011;41589;51.196;7.074;2023-03-15T23:09:12;5.30;;;4.90;;
19575;SDS011;41589;51.196;7.074;2023-03-15T23:14:13;5.27;;;4.87;;
19575;SDS011;41589;51.196;7.074;2023-03-15T23:19:13;9.20;;;8.37;;
19575;SDS011;41589;51.196;7.074;2023-03-15T23:24:14;9.50;;;8.67;;
19575;SDS011;41589;51.196;7.074;2023-03-15T23:29:16;20.37;;;18.23;;
19575;SDS011;41589;51.196;7.074;2023-03-15T23:34:16;7.20;;;6.60;;
19575;SDS011;41589;51.196;7.074;2023-03-15T23:39:17;9.27;;;8.47;;
19575;SDS011;41589;51.196;7.074;2023-03-15T23:44:18;3.90;;;3.60;;
19575;SDS011;41589;51.196;7.074;2023-03-15T23:49:18;1.77;;;1.67;;
19575;SDS011;41589;51.196;7.074;2023-03-15T23:54:20;5.97;;;5.47;;
19575;SDS011;41589;51.196;7.074;2023-03-15T23:59:20;2.93;;;2.77;;
